Spangler, PA

11:44 PM EST del 20 Dicembre 2014 (GMT -0500)
Indiana County-Stewart | Change Station
CLOSE
Current Station
Aeroporto
Location: Indiana,
Altitudine: 1407 ft
Stazioni meteo nelle vicinanze

Alt. 1407 ft 40.63 °N, 79.11 °W | Updated 9 minutes ago

Coperto
Coperto
27 °F
Sembra 27 °F
N
0
Vento Variabile Vento da Nord

Oggi
Massima -- | Minima -- °F
--% Possibilità di precip.
Ieri
Massima -- | Minima -- °F
Precip. -- in
7:34 AM 4:50 PM
Luna calante, 1% visible
Pressione 30.27 in
Visibilità 10.0 miglia
Nuvole Coperto 7500 ft
Punto di rugiada 23 °F
Umidità 86%
Piovosità 0.00 in
Spessore del manto nevoso Non disponibile.
Raggi UV 0 fuori da 12
Polline .10 fuori da 12
Qualità dell'aria Non disponibile.
Flu Activity Non disponibile.
METAR KIDI 210435Z AUTO 00000KT 10SM OVC075 M03/M05 A3027 RMK A01

More Conditions Fewer Conditions

Pressione 30.27 in
Visibilità 10.0 miglia
Nuvole Coperto 7500 ft
Punto di rugiada 23 °F
Umidità 86%
Piovosità 0.00 in
Spessore del manto nevoso Non disponibile.
Raggi UV 0 fuori da 12
Polline .10 fuori da 12
Qualità dell'aria Non disponibile.
Flu Activity Non disponibile.
METAR KIDI 210435Z AUTO 00000KT 10SM OVC075 M03/M05 A3027 RMK A01

More Conditions Fewer Conditions

10-Day Weather Forecast

Almanac

Astronomia

Dec. 20, 2014 Alba Tramonto
Ora attuale
Crepuscolo civile
Crepuscolo nautico
Crepuscolo astronomico
Luna
Estensione della luce visibile
Lunghezza del giorno
Tomorrow will be .
, % of the Moon is Illuminated

Gli estremi di oggi

State Highs State Lows

Community

WunderPhotos

Upload Photos

1,779,358 foto caricate!

WunderBlogs® & News

Nearby

Qualità dell'aria

  Qualità dell'aria Indice AQ Inquinante
Not available.

Profondità neve

Stazione Profondità Altitudine

Attività sismica

Città  Distanza Mag. Data & Ora
Minimo Magnitudo Mostrato è 2.5.

Temperature delle acque costiere

Località Temperatura

Stazioni meteo nelle vicinanze